Time;durP1;ratioP1;P1;durP2;ratioP2;P2;SDS_P1;SDS_P2;PMS_P1;PMS_P2;Temp;Humidity;BMP_temperature;BMP_pressure;BME280_temperature;BME280_humidity;BME280_pressure;Samples;Min_cycle;Max_cycle;Signal;HPM_P1;HPM_P2
2023/03/04 00:00:49;;;;;;;;;;;12.10;73.10;;;;;;5051874;28;19913;-89
2023/03/04 00:03:18;;;;;;;;;;;12.10;73.20;;;;;;5035567;28;19915;-89
2023/03/04 00:05:44;;;;;;;;;;;12.10;73.20;;;;;;5050425;28;19909;-89
2023/03/04 00:08:09;;;;;;;;;;;12.10;73.50;;;;;;5052424;28;19916;-89
2023/03/04 00:10:35;;;;;;;;;;;12.10;73.50;;;;;;5051579;28;19919;-90
2023/03/04 00:13:05;;;;;;;;;;;12.10;73.70;;;;;;5052136;28;19909;-89
2023/03/04 00:15:30;;;;;;;;;;;12.10;73.70;;;;;;5050098;28;19913;-89
2023/03/04 00:17:56;;;;;;;;;;;12.10;73.70;;;;;;5050112;28;20190;-89
2023/03/04 00:20:24;;;;;;;;;;;12.10;73.70;;;;;;5050180;28;20306;-89
2023/03/04 00:22:53;;;;;;;;;;;12.10;73.60;;;;;;5034380;28;19909;-89
2023/03/04 00:25:19;;;;;;;;;;;12.10;73.70;;;;;;5051434;28;19924;-89
2023/03/04 00:27:44;;;;;;;;;;;12.10;73.70;;;;;;5050875;28;19909;-89
2023/03/04 00:30:10;;;;;;;;;;;12.10;73.70;;;;;;5052034;28;19962;-89
2023/03/04 00:32:36;;;;;;;;;;;12.10;73.60;;;;;;5054156;28;19940;-89
2023/03/04 00:35:01;;;;;;;;;;;12.10;73.50;;;;;;5036139;28;19909;-89
2023/03/04 00:37:27;;;;;;;;;;;12.10;73.50;;;;;;5051624;28;20054;-89
2023/03/04 00:39:52;;;;;;;;;;;12.10;73.40;;;;;;5052204;28;20255;-89
2023/03/04 00:42:21;;;;;;;;;;;12.10;73.40;;;;;;5052620;28;19928;-89
2023/03/04 00:44:48;;;;;;;;;;;12.10;73.30;;;;;;5053518;28;19913;-89
2023/03/04 00:47:14;;;;;;;;;;;12.10;73.20;;;;;;5052399;28;19919;-88
2023/03/04 00:49:42;;;;;;;;;;;12.10;73.10;;;;;;5052393;28;20188;-88
2023/03/04 00:52:11;;;;;;;;;;;12.10;72.90;;;;;;5052279;28;19973;-89
2023/03/04 00:54:36;;;;;;;;;;;12.10;72.80;;;;;;5051827;28;19909;-89
2023/03/04 00:57:02;;;;;;;;;;;12.10;72.80;;;;;;5050838;28;19936;-89
2023/03/04 00:59:27;;;;;;;;;;;12.10;72.80;;;;;;5035631;28;20298;-89
2023/03/04 01:01:53;;;;;;;;;;;12.10;72.70;;;;;;5053064;28;19909;-89
2023/03/04 01:04:18;;;;;;;;;;;12.10;72.60;;;;;;5052536;28;19970;-89
2023/03/04 01:06:44;;;;;;;;;;;12.10;72.50;;;;;;5052118;28;19980;-89
2023/03/04 01:09:10;;;;;;;;;;;12.20;72.50;;;;;;5053760;28;20000;-89
2023/03/04 01:11:35;;;;;;;;;;;12.10;72.40;;;;;;5052822;28;19970;-89
2023/03/04 01:14:01;;;;;;;;;;;12.10;72.30;;;;;;5052778;28;19909;-89
2023/03/04 01:16:30;;;;;;;;;;;12.10;72.40;;;;;;5053647;28;20285;-89
2023/03/04 01:18:55;;;;;;;;;;;12.10;72.30;;;;;;5053133;28;20058;-89
2023/03/04 01:21:21;;;;;;;;;;;12.10;72.20;;;;;;5053251;28;19995;-88
2023/03/04 01:23:47;;;;;;;;;;;12.10;72.20;;;;;;5052927;28;19959;-89
2023/03/04 01:26:12;;;;;;;;;;;12.10;72.30;;;;;;5053811;28;20064;-89
2023/03/04 01:28:38;;;;;;;;;;;12.10;72.20;;;;;;5054121;28;20300;-89
2023/03/04 01:31:04;;;;;;;;;;;12.10;72.30;;;;;;5057728;28;19913;-89
2023/03/04 01:33:30;;;;;;;;;;;12.10;72.30;;;;;;5058563;28;19915;-89
2023/03/04 01:35:56;;;;;;;;;;;12.10;72.30;;;;;;5058369;28;19909;-89
2023/03/04 01:38:22;;;;;;;;;;;12.10;72.30;;;;;;5058323;28;19945;-89
2023/03/04 01:40:51;;;;;;;;;;;12.10;72.20;;;;;;5058530;28;19952;-89
2023/03/04 01:43:22;;;;;;;;;;;12.10;72.20;;;;;;5058033;28;20278;-89
2023/03/04 01:45:54;;;;;;;;;;;12.10;72.30;;;;;;5057162;28;19916;-89
2023/03/04 01:48:23;;;;;;;;;;;12.10;72.30;;;;;;5056680;28;19920;-88
2023/03/04 01:50:49;;;;;;;;;;;12.10;72.40;;;;;;5056138;28;19909;-89
2023/03/04 01:53:23;;;;;;;;;;;12.10;72.40;;;;;;5055452;28;19974;-89
2023/03/04 01:55:50;;;;;;;;;;;12.10;72.40;;;;;;5055038;28;20159;-89
2023/03/04 01:58:19;;;;;;;;;;;12.10;72.30;;;;;;5055593;28;20290;-88
2023/03/04 02:00:47;;;;;;;;;;;12.10;72.30;;;;;;5056457;28;19936;-89
2023/03/04 02:03:14;;;;;;;;;;;12.10;72.40;;;;;;5056445;28;20251;-89
2023/03/04 02:05:42;;;;;;;;;;;12.10;72.40;;;;;;5055325;28;20296;-89
2023/03/04 02:08:08;;;;;;;;;;;12.10;72.30;;;;;;5056853;28;19909;-89
2023/03/04 02:10:33;;;;;;;;;;;12.10;72.40;;;;;;5040522;28;20255;-89
2023/03/04 02:13:00;;;;;;;;;;;12.10;72.40;;;;;;5056706;28;19912;-89
2023/03/04 02:15:26;;;;;;;;;;;12.10;72.50;;;;;;5040551;28;19909;-89
2023/03/04 02:17:51;;;;;;;;;;;12.10;72.60;;;;;;5044771;28;19955;-88
2023/03/04 02:20:29;;;;;;;;;;;12.00;72.40;;;;;;5062143;28;19963;-89
2023/03/04 02:23:04;;;;;;;;;;;12.00;72.50;;;;;;5057695;28;20129;-89
2023/03/04 02:25:37;;;;;;;;;;;12.10;72.60;;;;;;5058089;28;19920;-88
2023/03/04 02:28:03;;;;;;;;;;;12.10;72.60;;;;;;5057017;28;19909;-89
2023/03/04 02:30:28;;;;;;;;;;;12.10;72.60;;;;;;5057389;28;19915;-88
2023/03/04 02:32:54;;;;;;;;;;;12.00;72.50;;;;;;5057287;28;19909;-89
2023/03/04 02:35:20;;;;;;;;;;;12.00;72.50;;;;;;5056738;28;20007;-89
2023/03/04 02:37:46;;;;;;;;;;;12.00;72.50;;;;;;4903369;28;19909;-89
2023/03/04 02:40:17;;;;;;;;;;;12.00;72.50;;;;;;5053749;28;19958;-89
2023/03/04 02:42:44;;;;;;;;;;;12.00;72.60;;;;;;5037537;28;20083;-89
2023/03/04 02:45:28;;;;;;;;;;;12.00;72.60;;;;;;5054944;28;19916;-89
2023/03/04 02:47:57;;;;;;;;;;;12.00;72.50;;;;;;5056962;28;20297;-89
2023/03/04 02:50:22;;;;;;;;;;;12.00;72.50;;;;;;5039081;28;19909;-89
2023/03/04 02:52:48;;;;;;;;;;;12.00;72.50;;;;;;5054828;28;19919;-89
2023/03/04 02:55:13;;;;;;;;;;;12.00;72.50;;;;;;5055675;28;19920;-89
2023/03/04 02:57:42;;;;;;;;;;;12.00;72.50;;;;;;5038759;28;20029;-88
2023/03/04 03:00:08;;;;;;;;;;;12.00;72.40;;;;;;5056085;28;19908;-89
2023/03/04 03:02:36;;;;;;;;;;;12.00;72.40;;;;;;5056831;28;19908;-88
2023/03/04 03:05:02;;;;;;;;;;;12.00;72.30;;;;;;5056253;28;20259;-89
2023/03/04 03:07:28;;;;;;;;;;;12.00;72.30;;;;;;5055768;28;20295;-89
2023/03/04 03:09:53;;;;;;;;;;;12.00;72.30;;;;;;5056458;28;20164;-89
2023/03/04 03:12:19;;;;;;;;;;;12.00;72.30;;;;;;5055289;28;20222;-88
2023/03/04 03:14:44;;;;;;;;;;;12.00;72.30;;;;;;5056244;28;19924;-89
2023/03/04 03:17:10;;;;;;;;;;;12.00;72.30;;;;;;5056116;28;20153;-89
2023/03/04 03:19:35;;;;;;;;;;;12.00;72.20;;;;;;5056525;28;19995;-89
2023/03/04 03:22:01;;;;;;;;;;;12.00;72.30;;;;;;5057009;28;19908;-89
2023/03/04 03:24:30;;;;;;;;;;;12.00;72.20;;;;;;5055500;28;19939;-89
2023/03/04 03:26:55;;;;;;;;;;;12.00;72.20;;;;;;5055322;28;19909;-89
2023/03/04 03:29:21;;;;;;;;;;;12.00;72.10;;;;;;5055517;28;19958;-88
2023/03/04 03:31:46;;;;;;;;;;;12.00;72.10;;;;;;5055047;28;19923;-89
2023/03/04 03:34:12;;;;;;;;;;;12.00;72.20;;;;;;5055002;28;19920;-89
2023/03/04 03:36:37;;;;;;;;;;;12.00;72.30;;;;;;5055017;28;19909;-89
2023/03/04 03:39:03;;;;;;;;;;;12.00;72.30;;;;;;5053694;28;19909;-89
2023/03/04 03:41:28;;;;;;;;;;;12.00;72.40;;;;;;5053967;28;19916;-89
2023/03/04 03:43:57;;;;;;;;;;;12.00;72.40;;;;;;5053236;28;19913;-89
2023/03/04 03:46:26;;;;;;;;;;;12.00;72.40;;;;;;5054306;28;19909;-89
2023/03/04 03:48:51;;;;;;;;;;;12.00;72.50;;;;;;5053910;28;20241;-88
2023/03/04 03:51:20;;;;;;;;;;;12.00;72.60;;;;;;5053376;28;19974;-89
2023/03/04 03:53:48;;;;;;;;;;;12.00;72.60;;;;;;5037887;28;20018;-89
2023/03/04 03:56:14;;;;;;;;;;;12.00;72.60;;;;;;5055013;28;19919;-89
2023/03/04 03:58:39;;;;;;;;;;;12.00;72.70;;;;;;5037162;28;20011;-88
2023/03/04 04:01:08;;;;;;;;;;;12.00;72.70;;;;;;5055092;28;20007;-89
2023/03/04 04:03:36;;;;;;;;;;;12.00;72.80;;;;;;5054019;28;20144;-89
2023/03/04 04:06:02;;;;;;;;;;;12.00;72.90;;;;;;5038106;28;19935;-89
2023/03/04 04:08:27;;;;;;;;;;;12.00;72.90;;;;;;5039369;28;20334;-89
2023/03/04 04:10:53;;;;;;;;;;;12.00;72.90;;;;;;5055136;28;20294;-89
2023/03/04 04:13:19;;;;;;;;;;;12.00;72.90;;;;;;5055398;28;19909;-89
2023/03/04 04:15:44;;;;;;;;;;;12.00;72.80;;;;;;5055811;28;20007;-89
2023/03/04 04:18:10;;;;;;;;;;;12.00;72.80;;;;;;5055210;28;19920;-89
2023/03/04 04:20:36;;;;;;;;;;;12.00;72.70;;;;;;5054973;28;19912;-88
2023/03/04 04:23:02;;;;;;;;;;;12.00;72.50;;;;;;5053530;28;19928;-89
2023/03/04 04:25:27;;;;;;;;;;;12.00;72.60;;;;;;5054501;28;19963;-88
2023/03/04 04:27:53;;;;;;;;;;;12.00;72.70;;;;;;5055289;28;20255;-89
2023/03/04 04:30:19;;;;;;;;;;;12.00;72.70;;;;;;5054609;28;19909;-88
2023/03/04 04:32:44;;;;;;;;;;;12.00;72.50;;;;;;5038929;28;20313;-88
2023/03/04 04:35:13;;;;;;;;;;;12.10;72.10;;;;;;5054915;28;20011;-88
2023/03/04 04:37:41;;;;;;;;;;;12.20;71.50;;;;;;5054149;28;19916;-89
2023/03/04 04:40:08;;;;;;;;;;;12.30;70.90;;;;;;5054810;28;19996;-88
2023/03/04 04:42:36;;;;;;;;;;;12.40;70.20;;;;;;5055025;28;19924;-89
2023/03/04 04:45:05;;;;;;;;;;;12.50;70.10;;;;;;5055056;28;19913;-88
2023/03/04 04:47:33;;;;;;;;;;;12.60;68.90;;;;;;5054618;28;19913;-88
2023/03/04 04:49:59;;;;;;;;;;;12.60;68.40;;;;;;5054948;28;19919;-89
2023/03/04 04:52:25;;;;;;;;;;;12.60;68.00;;;;;;5054023;28;20055;-89
2023/03/04 04:54:53;;;;;;;;;;;12.60;67.80;;;;;;5053041;28;20190;-89
2023/03/04 04:57:22;;;;;;;;;;;12.60;67.90;;;;;;5053258;28;19919;-89
2023/03/04 04:59:48;;;;;;;;;;;12.60;67.70;;;;;;5053625;28;19909;-88
2023/03/04 05:02:13;;;;;;;;;;;12.60;67.80;;;;;;5036887;28;19927;-89
2023/03/04 05:04:39;;;;;;;;;;;12.60;67.90;;;;;;5056221;28;19913;-89
2023/03/04 05:07:04;;;;;;;;;;;12.60;68.20;;;;;;5058355;28;19909;-88
2023/03/04 05:09:30;;;;;;;;;;;12.50;68.30;;;;;;5057742;28;19992;-89
2023/03/04 05:12:18;;;;;;;;;;;12.50;68.40;;;;;;5058710;28;19908;-88
2023/03/04 05:14:46;;;;;;;;;;;12.50;68.60;;;;;;5058451;28;19904;-89
2023/03/04 05:17:12;;;;;;;;;;;12.40;68.80;;;;;;5057242;28;19908;-88
2023/03/04 05:19:38;;;;;;;;;;;12.40;68.90;;;;;;5057144;28;20147;-89
2023/03/04 05:22:03;;;;;;;;;;;12.40;69.20;;;;;;5057026;28;19912;-88
2023/03/04 05:24:29;;;;;;;;;;;12.30;69.30;;;;;;5055509;28;19966;-88
2023/03/04 05:26:54;;;;;;;;;;;12.30;69.60;;;;;;5039088;28;19920;-89
2023/03/04 05:29:20;;;;;;;;;;;12.30;69.70;;;;;;5054707;28;19939;-89
2023/03/04 05:31:46;;;;;;;;;;;12.20;69.80;;;;;;5055394;28;19909;-89
2023/03/04 05:34:11;;;;;;;;;;;12.20;69.90;;;;;;5055664;28;19916;-89
2023/03/04 05:36:37;;;;;;;;;;;12.20;70.00;;;;;;5056531;28;19909;-89
2023/03/04 05:39:05;;;;;;;;;;;12.20;70.20;;;;;;5039466;28;19953;-89
2023/03/04 05:41:31;;;;;;;;;;;12.20;70.30;;;;;;5055282;28;19986;-89
2023/03/04 05:43:57;;;;;;;;;;;12.20;70.50;;;;;;5057010;28;19924;-89
2023/03/04 05:46:24;;;;;;;;;;;12.20;70.80;;;;;;5057687;28;20211;-88
2023/03/04 05:48:53;;;;;;;;;;;12.20;70.90;;;;;;5057782;28;19989;-89
2023/03/04 05:51:19;;;;;;;;;;;12.10;71.00;;;;;;5055519;28;19920;-89
2023/03/04 05:53:44;;;;;;;;;;;12.10;71.10;;;;;;5056227;28;19909;-88
2023/03/04 05:56:17;;;;;;;;;;;12.10;71.30;;;;;;5054598;28;20020;-89
2023/03/04 05:58:46;;;;;;;;;;;12.10;71.40;;;;;;5056092;28;19909;-89
2023/03/04 06:01:12;;;;;;;;;;;12.10;71.60;;;;;;5055573;28;19962;-89
2023/03/04 06:03:42;;;;;;;;;;;12.00;71.60;;;;;;5054682;28;20221;-89
2023/03/04 06:06:08;;;;;;;;;;;12.00;71.70;;;;;;5038180;28;20076;-89
2023/03/04 06:08:33;;;;;;;;;;;12.00;71.80;;;;;;5054655;28;19999;-89
2023/03/04 06:10:59;;;;;;;;;;;12.00;71.90;;;;;;5039214;28;19912;-89
2023/03/04 06:13:25;;;;;;;;;;;12.00;72.00;;;;;;5039307;28;19909;-89
2023/03/04 06:15:55;;;;;;;;;;;12.00;72.00;;;;;;5055938;28;20148;-89
2023/03/04 06:18:27;;;;;;;;;;;12.00;71.90;;;;;;5056285;28;19912;-89
2023/03/04 06:24:18;;;;;;;;;;;12.00;71.70;;;;;;5053152;28;20324;-89
2023/03/04 06:26:43;;;;;;;;;;;12.00;71.80;;;;;;5053673;28;20345;-89
2023/03/04 06:29:12;;;;;;;;;;;12.00;71.90;;;;;;5053929;28;19996;-89
2023/03/04 06:31:40;;;;;;;;;;;12.00;72.00;;;;;;5053958;28;19909;-89
2023/03/04 06:34:09;;;;;;;;;;;12.10;72.10;;;;;;5051984;28;20306;-88
2023/03/04 06:36:37;;;;;;;;;;;12.10;71.80;;;;;;5054656;28;19909;-89
2023/03/04 06:39:04;;;;;;;;;;;12.20;71.40;;;;;;5053456;28;20182;-89
2023/03/04 06:41:32;;;;;;;;;;;12.30;70.80;;;;;;5052231;28;19964;-89
2023/03/04 06:44:01;;;;;;;;;;;12.40;70.20;;;;;;5053532;28;20025;-89
2023/03/04 06:46:29;;;;;;;;;;;12.40;69.70;;;;;;5052828;28;20184;-89
2023/03/04 06:48:58;;;;;;;;;;;12.50;69.30;;;;;;5051303;28;20275;-89
2023/03/04 06:51:27;;;;;;;;;;;12.50;68.90;;;;;;5052412;28;19908;-89
2023/03/04 06:53:53;;;;;;;;;;;12.60;68.50;;;;;;5052690;28;20233;-89
2023/03/04 06:56:21;;;;;;;;;;;12.60;68.20;;;;;;5051408;28;20337;-89
2023/03/04 06:58:47;;;;;;;;;;;12.60;68.00;;;;;;5035485;28;19916;-89
2023/03/04 07:01:23;;;;;;;;;;;12.60;67.90;;;;;;5052569;28;19909;-89
2023/03/04 07:03:51;;;;;;;;;;;12.60;67.90;;;;;;5052072;28;20480;-89
2023/03/04 07:06:21;;;;;;;;;;;12.60;68.10;;;;;;5052136;28;19944;-89
2023/03/04 07:08:49;;;;;;;;;;;12.50;68.10;;;;;;5053466;28;19908;-89
2023/03/04 07:11:15;;;;;;;;;;;12.50;68.20;;;;;;5035514;28;19919;-89
2023/03/04 07:13:41;;;;;;;;;;;12.50;68.20;;;;;;5036329;28;19912;-89
2023/03/04 07:16:11;;;;;;;;;;;12.50;68.40;;;;;;5052613;28;19935;-89
2023/03/04 07:18:37;;;;;;;;;;;12.40;68.50;;;;;;5051334;28;19987;-89
2023/03/04 07:21:03;;;;;;;;;;;12.40;68.70;;;;;;5035062;28;19948;-89
2023/03/04 07:23:32;;;;;;;;;;;12.40;68.90;;;;;;5051363;28;19917;-89
2023/03/04 07:26:01;;;;;;;;;;;12.40;69.10;;;;;;5051465;28;19913;-89
2023/03/04 07:28:27;;;;;;;;;;;12.40;69.20;;;;;;5052828;28;19993;-89
2023/03/04 07:30:55;;;;;;;;;;;12.30;69.30;;;;;;5052272;28;20452;-89
2023/03/04 07:33:24;;;;;;;;;;;12.30;69.40;;;;;;5050973;28;19951;-89
2023/03/04 07:35:57;;;;;;;;;;;12.30;69.40;;;;;;5052087;28;19912;-89
2023/03/04 07:38:25;;;;;;;;;;;12.30;69.50;;;;;;5051372;28;19908;-89
2023/03/04 07:40:55;;;;;;;;;;;12.30;69.60;;;;;;5051245;28;19944;-89
2023/03/04 07:43:21;;;;;;;;;;;12.30;70.10;;;;;;5049389;28;19935;-89
2023/03/04 07:45:47;;;;;;;;;;;12.30;70.40;;;;;;5049769;28;20175;-89
2023/03/04 07:48:15;;;;;;;;;;;12.30;70.30;;;;;;5049744;28;20198;-89
2023/03/04 07:50:44;;;;;;;;;;;12.30;70.60;;;;;;5051887;28;19918;-89
2023/03/04 07:53:12;;;;;;;;;;;12.20;70.70;;;;;;5050633;28;19935;-88
2023/03/04 07:55:41;;;;;;;;;;;12.20;71.00;;;;;;5049651;28;19924;-89
2023/03/04 07:58:07;;;;;;;;;;;12.20;71.70;;;;;;5048179;28;20132;-89
2023/03/04 08:00:32;;;;;;;;;;;12.20;72.20;;;;;;5047152;28;19917;-89
2023/03/04 08:02:58;;;;;;;;;;;12.20;72.50;;;;;;5047766;28;19916;-89
2023/03/04 08:05:27;;;;;;;;;;;12.30;72.70;;;;;;5030952;28;19917;-89
2023/03/04 08:07:56;;;;;;;;;;;12.20;72.70;;;;;;5030493;28;20038;-88
2023/03/04 08:10:22;;;;;;;;;;;12.30;72.80;;;;;;5029569;28;20008;-89
2023/03/04 08:12:51;;;;;;;;;;;12.30;72.90;;;;;;5048220;28;20112;-89
2023/03/04 08:15:19;;;;;;;;;;;12.30;73.10;;;;;;5049571;28;20175;-89
2023/03/04 08:17:48;;;;;;;;;;;12.30;73.80;;;;;;5048200;28;19908;-88
2023/03/04 08:20:16;;;;;;;;;;;12.40;74.10;;;;;;5049190;28;19913;-88
2023/03/04 08:22:45;;;;;;;;;;;12.60;73.60;;;;;;5032197;28;20186;-88
2023/03/04 08:25:11;;;;;;;;;;;12.90;72.40;;;;;;5046950;28;19924;-89
2023/03/04 08:27:39;;;;;;;;;;;13.20;70.30;;;;;;5047655;28;20234;-89
2023/03/04 08:30:05;;;;;;;;;;;13.80;67.90;;;;;;5047484;28;19920;-88
2023/03/04 08:32:30;;;;;;;;;;;14.30;64.10;;;;;;5047457;28;19913;-88
2023/03/04 08:35:01;;;;;;;;;;;14.40;61.80;;;;;;5047317;28;20194;-88
2023/03/04 08:37:29;;;;;;;;;;;14.40;60.90;;;;;;5047905;28;20164;-89
2023/03/04 08:39:55;;;;;;;;;;;14.50;60.30;;;;;;5051083;28;19909;-89
2023/03/04 08:42:24;;;;;;;;;;;14.70;59.60;;;;;;5050547;28;20218;-88
2023/03/04 08:44:54;;;;;;;;;;;14.80;58.90;;;;;;5051172;28;19917;-88
2023/03/04 08:47:19;;;;;;;;;;;14.60;58.80;;;;;;5051633;28;19908;-89
2023/03/04 08:49:45;;;;;;;;;;;14.40;59.10;;;;;;5051462;28;19920;-88
2023/03/04 08:52:11;;;;;;;;;;;14.30;59.60;;;;;;5052227;28;19966;-89
2023/03/04 08:54:40;;;;;;;;;;;14.20;59.90;;;;;;5052713;28;19909;-89
2023/03/04 08:57:08;;;;;;;;;;;14.00;60.40;;;;;;5034379;28;20063;-88
2023/03/04 08:59:34;;;;;;;;;;;13.90;61.00;;;;;;5052798;28;19939;-89
2023/03/04 09:02:00;;;;;;;;;;;13.90;61.60;;;;;;5048866;28;20149;-90
2023/03/04 09:04:28;;;;;;;;;;;14.00;62.10;;;;;;5051306;28;19913;-89
2023/03/04 09:06:54;;;;;;;;;;;14.00;62.20;;;;;;5053297;28;19920;-88
2023/03/04 09:09:19;;;;;;;;;;;14.00;62.60;;;;;;5053309;28;19909;-89
2023/03/04 09:11:45;;;;;;;;;;;13.90;63.10;;;;;;5048410;28;20226;-89
2023/03/04 09:14:13;;;;;;;;;;;13.80;63.90;;;;;;5032476;28;20157;-89
2023/03/04 09:16:42;;;;;;;;;;;13.70;64.50;;;;;;5049619;28;20271;-90
2023/03/04 09:19:11;;;;;;;;;;;13.70;65.10;;;;;;5034040;28;19920;-89
2023/03/04 09:21:37;;;;;;;;;;;13.70;65.50;;;;;;5052175;28;19909;-89
2023/03/04 09:24:02;;;;;;;;;;;13.60;66.40;;;;;;5053094;28;19913;-89
2023/03/04 09:26:28;;;;;;;;;;;13.60;67.50;;;;;;5049112;28;19932;-90
2023/03/04 09:28:56;;;;;;;;;;;13.60;68.00;;;;;;5052255;28;19986;-91
2023/03/04 09:31:21;;;;;;;;;;;13.50;68.30;;;;;;5035182;28;19936;-89
2023/03/04 09:33:50;;;;;;;;;;;13.50;68.90;;;;;;5052666;28;20005;-90
2023/03/04 09:36:18;;;;;;;;;;;13.50;69.30;;;;;;5052008;28;19916;-89
2023/03/04 09:38:47;;;;;;;;;;;13.50;69.80;;;;;;5052071;28;19909;-89
2023/03/04 09:41:19;;;;;;;;;;;13.40;70.10;;;;;;5050501;28;19948;-89
2023/03/04 09:43:45;;;;;;;;;;;13.40;70.30;;;;;;5048849;28;19924;-90
2023/03/04 09:46:14;;;;;;;;;;;13.40;70.50;;;;;;5047126;28;19979;-90
2023/03/04 09:48:49;;;;;;;;;;;13.40;71.00;;;;;;5031852;28;19908;-90
2023/03/04 09:51:23;;;;;;;;;;;13.40;71.10;;;;;;5047816;28;19971;-89
2023/03/04 09:54:18;;;;;;;;;;;13.40;71.00;;;;;;5049267;28;19909;-89
2023/03/04 09:56:43;;;;;;;;;;;13.40;71.00;;;;;;5013344;28;19919;-89
2023/03/04 09:59:29;;;;;;;;;;;13.40;71.00;;;;;;5051551;28;19908;-89
2023/03/04 10:01:59;;;;;;;;;;;13.50;70.70;;;;;;5051658;28;19967;-90
2023/03/04 10:04:28;;;;;;;;;;;13.50;71.00;;;;;;5050941;28;20198;-89
2023/03/04 10:06:56;;;;;;;;;;;13.40;70.90;;;;;;5050348;28;19909;-89
2023/03/04 10:09:31;;;;;;;;;;;13.40;71.10;;;;;;5048467;28;19909;-89
2023/03/04 10:12:00;;;;;;;;;;;13.40;71.50;;;;;;5048464;28;20064;-89
2023/03/04 10:14:46;;;;;;;;;;;13.40;71.60;;;;;;5045838;28;20034;-89
2023/03/04 10:17:27;;;;;;;;;;;13.40;71.70;;;;;;5044950;28;19913;-89
2023/03/04 10:20:16;;;;;;;;;;;13.30;71.90;;;;;;5029387;28;20281;-89
2023/03/04 10:23:05;;;;;;;;;;;13.30;72.00;;;;;;5019737;28;20199;-89
2023/03/04 10:25:50;;;;;;;;;;;13.30;72.10;;;;;;5029267;28;20139;-89
2023/03/04 10:28:17;;;;;;;;;;;13.30;72.30;;;;;;5029860;28;19940;-89
2023/03/04 10:30:46;;;;;;;;;;;13.30;72.40;;;;;;5030088;28;19917;-89
2023/03/04 10:33:16;;;;;;;;;;;13.30;72.50;;;;;;5030269;28;20089;-89
2023/03/04 10:35:48;;;;;;;;;;;13.30;72.40;;;;;;5030527;28;19913;-89
2023/03/04 10:38:21;;;;;;;;;;;13.30;72.40;;;;;;5031385;28;20003;-89
2023/03/04 10:40:46;;;;;;;;;;;13.30;72.70;;;;;;5029796;28;20149;-90
2023/03/04 10:43:21;;;;;;;;;;;13.30;72.60;;;;;;5031355;28;20329;-90
2023/03/04 10:45:50;;;;;;;;;;;13.30;72.40;;;;;;5031608;28;20279;-89
2023/03/04 10:48:20;;;;;;;;;;;13.30;72.40;;;;;;5031850;28;19909;-89
2023/03/04 10:50:49;;;;;;;;;;;13.30;72.60;;;;;;5030995;28;19952;-89
2023/03/04 10:53:32;;;;;;;;;;;13.30;72.50;;;;;;5030194;28;20407;-89
2023/03/04 10:55:58;;;;;;;;;;;13.30;72.30;;;;;;5029991;28;20376;-89
2023/03/04 10:58:24;;;;;;;;;;;13.30;72.20;;;;;;5029101;28;19920;-89
2023/03/04 11:00:59;;;;;;;;;;;13.30;72.20;;;;;;5047050;28;19909;-89
2023/03/04 11:03:24;;;;;;;;;;;13.30;72.30;;;;;;5028947;28;19909;-90
2023/03/04 11:05:53;;;;;;;;;;;13.30;72.30;;;;;;5030138;28;19920;-89
2023/03/04 11:08:20;;;;;;;;;;;13.30;72.40;;;;;;5031710;28;20004;-89
2023/03/04 11:10:46;;;;;;;;;;;13.30;72.50;;;;;;5030156;28;20019;-89
2023/03/04 11:13:22;;;;;;;;;;;13.30;72.70;;;;;;5049873;28;19948;-89
2023/03/04 11:16:04;;;;;;;;;;;13.30;72.80;;;;;;5032463;28;20334;-89
2023/03/04 11:18:48;;;;;;;;;;;13.20;72.90;;;;;;5031804;28;19979;-90
2023/03/04 11:21:19;;;;;;;;;;;13.20;73.10;;;;;;5031566;28;20073;-89
2023/03/04 11:23:59;;;;;;;;;;;13.20;73.20;;;;;;5032031;28;19966;-89
2023/03/04 11:26:30;;;;;;;;;;;13.20;73.20;;;;;;5032800;28;19979;-90
2023/03/04 11:29:06;;;;;;;;;;;13.20;73.40;;;;;;5030869;28;19909;-90
2023/03/04 11:31:50;;;;;;;;;;;13.20;73.40;;;;;;5029399;28;19970;-90
2023/03/04 11:34:31;;;;;;;;;;;13.20;73.70;;;;;;5030350;28;20072;-89
2023/03/04 11:36:58;;;;;;;;;;;13.20;73.70;;;;;;5029591;28;20049;-89
2023/03/04 11:39:33;;;;;;;;;;;13.20;73.60;;;;;;5047789;28;19974;-89
2023/03/04 11:42:03;;;;;;;;;;;13.20;73.70;;;;;;5028210;28;20806;-89
2023/03/04 11:44:33;;;;;;;;;;;13.30;73.70;;;;;;5046537;28;19968;-89
2023/03/04 11:46:58;;;;;;;;;;;13.30;73.60;;;;;;5030324;28;19909;-89
2023/03/04 11:49:43;;;;;;;;;;;13.30;73.50;;;;;;5030133;28;19915;-89
2023/03/04 11:52:27;;;;;;;;;;;13.30;73.50;;;;;;5029996;28;19909;-89
2023/03/04 11:54:59;;;;;;;;;;;13.30;73.60;;;;;;5028820;28;19909;-89
2023/03/04 11:57:36;;;;;;;;;;;13.30;73.90;;;;;;5029344;28;19917;-89
2023/03/04 12:00:21;;;;;;;;;;;13.30;73.80;;;;;;5047034;28;19912;-89
2023/03/04 12:03:06;;;;;;;;;;;13.30;73.90;;;;;;5028187;28;19909;-89
2023/03/04 12:05:35;;;;;;;;;;;13.40;73.80;;;;;;4984949;28;19920;-89
2023/03/04 12:08:19;;;;;;;;;;;13.50;73.10;;;;;;5044106;28;19909;-89
2023/03/04 12:11:07;;;;;;;;;;;13.50;72.60;;;;;;5028250;28;20276;-89
2023/03/04 12:13:51;;;;;;;;;;;13.50;72.40;;;;;;5029675;28;20000;-89
2023/03/04 12:16:22;;;;;;;;;;;13.50;72.50;;;;;;5031875;28;19909;-89
2023/03/04 12:19:07;;;;;;;;;;;13.50;72.60;;;;;;5045816;28;20145;-89
2023/03/04 12:21:44;;;;;;;;;;;13.50;72.80;;;;;;5029046;28;19909;-89
2023/03/04 12:24:20;;;;;;;;;;;13.50;73.00;;;;;;5029635;28;19912;-89
2023/03/04 12:26:54;;;;;;;;;;;13.40;73.20;;;;;;5028493;28;20133;-89
2023/03/04 12:29:39;;;;;;;;;;;13.40;73.40;;;;;;5027747;28;20157;-90
2023/03/04 12:32:28;;;;;;;;;;;13.40;73.40;;;;;;5029268;28;19946;-90
2023/03/04 12:35:06;;;;;;;;;;;13.40;73.50;;;;;;5018535;28;19916;-89
2023/03/04 12:38:10;;;;;;;;;;;13.40;73.50;;;;;;5027697;28;19915;-89
2023/03/04 12:40:50;;;;;;;;;;;13.40;73.60;;;;;;4947605;28;20269;-89
2023/03/04 12:43:24;;;;;;;;;;;13.40;73.70;;;;;;4948573;28;20189;-90
2023/03/04 12:45:53;;;;;;;;;;;13.40;73.60;;;;;;4997318;28;20282;-89
2023/03/04 12:48:29;;;;;;;;;;;13.40;73.50;;;;;;5027344;28;19917;-89
2023/03/04 12:51:01;;;;;;;;;;;13.40;73.70;;;;;;5026400;28;20124;-89
2023/03/04 12:53:29;;;;;;;;;;;13.40;73.80;;;;;;5025792;28;20242;-90
2023/03/04 12:55:58;;;;;;;;;;;13.40;73.90;;;;;;5027355;28;19947;-89
2023/03/04 12:58:29;;;;;;;;;;;13.40;73.90;;;;;;5028198;28;19921;-89
2023/03/04 13:01:14;;;;;;;;;;;13.40;73.80;;;;;;5028159;28;20332;-89
2023/03/04 13:03:52;;;;;;;;;;;13.40;73.80;;;;;;5027606;28;19909;-89
2023/03/04 13:06:27;;;;;;;;;;;13.40;73.90;;;;;;5043670;28;19908;-89
2023/03/04 13:09:06;;;;;;;;;;;13.40;74.00;;;;;;5027319;28;19909;-89
2023/03/04 13:11:40;;;;;;;;;;;13.40;74.20;;;;;;5026851;28;19915;-89
2023/03/04 13:14:17;;;;;;;;;;;13.40;74.40;;;;;;5028274;28;19979;-89
2023/03/04 13:16:50;;;;;;;;;;;13.40;74.50;;;;;;5027417;28;19970;-89
2023/03/04 13:19:34;;;;;;;;;;;13.40;74.60;;;;;;5025489;28;19920;-90
2023/03/04 13:22:00;;;;;;;;;;;13.40;74.70;;;;;;5047364;28;20297;-89
2023/03/04 13:24:45;;;;;;;;;;;13.30;74.80;;;;;;5030384;28;19913;-89
2023/03/04 13:27:29;;;;;;;;;;;13.30;74.90;;;;;;5050195;28;19970;-89
2023/03/04 13:29:55;;;;;;;;;;;13.30;75.10;;;;;;5032762;28;19916;-89
2023/03/04 13:32:37;;;;;;;;;;;13.30;75.10;;;;;;5031172;28;20415;-89
2023/03/04 13:35:23;;;;;;;;;;;13.30;75.00;;;;;;5033105;28;20253;-89
2023/03/04 13:38:01;;;;;;;;;;;13.40;75.10;;;;;;5032226;28;19909;-89
2023/03/04 13:40:31;;;;;;;;;;;13.40;74.90;;;;;;5031200;28;19912;-89
2023/03/04 13:43:17;;;;;;;;;;;13.40;74.90;;;;;;5030923;28;19916;-89
2023/03/04 13:45:42;;;;;;;;;;;13.40;74.80;;;;;;5027190;28;19913;-89
2023/03/04 13:48:22;;;;;;;;;;;13.40;74.80;;;;;;5027862;28;19919;-89
2023/03/04 13:50:49;;;;;;;;;;;13.40;74.90;;;;;;5027856;28;19909;-89
2023/03/04 13:53:22;;;;;;;;;;;13.40;75.10;;;;;;5028824;28;19916;-89
2023/03/04 13:56:06;;;;;;;;;;;13.40;75.20;;;;;;5030419;28;19913;-89
2023/03/04 13:58:35;;;;;;;;;;;13.40;75.30;;;;;;5029735;28;20210;-90
2023/03/04 14:01:00;;;;;;;;;;;13.40;75.50;;;;;;5032803;28;19909;-89
2023/03/04 14:03:30;;;;;;;;;;;13.30;75.60;;;;;;5029685;28;19969;-89
2023/03/04 14:06:16;;;;;;;;;;;13.30;75.80;;;;;;5030727;28;19920;-89
2023/03/04 14:08:48;;;;;;;;;;;13.30;76.00;;;;;;5048024;28;19990;-90
2023/03/04 14:11:31;;;;;;;;;;;13.30;76.10;;;;;;5047059;28;19909;-89
2023/03/04 14:13:57;;;;;;;;;;;13.40;76.00;;;;;;5030989;28;20085;-89
2023/03/04 14:16:27;;;;;;;;;;;13.40;75.90;;;;;;5055490;28;19924;-89
2023/03/04 14:18:57;;;;;;;;;;;13.50;75.60;;;;;;5050236;28;19920;-89
2023/03/04 14:21:22;;;;;;;;;;;13.50;75.50;;;;;;5031527;28;19909;-89
2023/03/04 14:24:04;;;;;;;;;;;13.50;75.30;;;;;;5048895;28;20191;-89
2023/03/04 14:26:30;;;;;;;;;;;13.50;75.30;;;;;;5029664;28;20160;-89
2023/03/04 14:28:58;;;;;;;;;;;13.50;75.50;;;;;;5029692;28;20189;-89
2023/03/04 14:31:31;;;;;;;;;;;13.50;75.50;;;;;;5045992;28;19936;-89
2023/03/04 14:34:01;;;;;;;;;;;13.50;75.70;;;;;;5030202;28;20300;-89